Stations météo

réclame
Mon MeteoGroup
Baza, Espagne (8424): Température de l'air & dewpoint: 08.08.2018 08:00:00 - 14.08.2018 08:00:00 (CEST)Baza, Espagne (8424): Vitesse du vent & gusts: 08.08.2018 08:00:00 - 14.08.2018 08:00:00 (CEST)Baza, Espagne (8424): Direction du vent: 08.08.2018 08:00:00 - 14.08.2018 08:00:00 (CEST)Baza, Espagne (8424): visibility: 08.08.2018 08:00:00 - 14.08.2018 08:00:00 (CEST)Baza, Espagne (8424): Ensoleillement: 08.08.2018 08:00:00 - 14.08.2018 08:00:00 (CEST)Baza, Espagne (8424): Quantités de précipitations: 08.08.2018 08:00:00 - 14.08.2018 08:00:00 (CEST)
Date & Time tt [°C] td [°C] ff [km/h] ff [knt] fx [km/h] fx [knt] dd vv [km] sd [min] rr [mm]
14.08.2018 08:00:00 16,6 8,5 8 4 12 6 SW 20 0 -
14.08.2018 07:00:00 16,6 8,8 6 4 10 6 SE 20 0 0,0
14.08.2018 06:00:00 18,1 9,2 6 3 9 5 SE 20 0 0,0
14.08.2018 05:00:00 21,2 10,0 3 1 19 10 SSW 20 0 0,0
14.08.2018 04:00:00 22,9 8,9 5 3 16 9 W 20 0 0,0
14.08.2018 03:00:00 23,7 7,7 11 6 20 11 W 20 0 0,0
14.08.2018 02:00:00 19,4 8,4 6 4 12 7 SSE 20 0 -
14.08.2018 01:00:00 20,7 8,7 6 3 9 5 SSE 20 0 0,0
14.08.2018 00:00:00 22,9 8,3 4 2 17 9 SE 20 0 0,0
13.08.2018 23:00:00 25,4 6,5 6 3 12 6 W 20 0 0,0
13.08.2018 22:00:00 26,9 6,8 6 3 12 6 SW 20 0 0,0
13.08.2018 21:00:00 29,0 7,6 6 3 23 12 NW 20 52 0,0
13.08.2018 20:00:00 31,3 6,4 13 7 31 17 WNW 20 60 -
13.08.2018 19:00:00 32,3 7,8 14 8 29 15 WNW 20 60 0,0
13.08.2018 18:00:00 32,9 7,0 16 9 29 15 WNW 20 60 0,0
13.08.2018 17:00:00 32,8 8,9 16 9 29 15 NW 20 60 0,0
13.08.2018 16:00:00 32,9 10,3 14 7 24 13 NNW 20 60 0,0
13.08.2018 15:00:00 32,0 9,6 12 7 29 15 NNW 20 60 0,0
13.08.2018 14:00:00 30,8 9,7 9 5 27 15 NW 20 60 -
13.08.2018 13:00:00 29,2 10,3 15 8 25 13 WNW 20 60 0,0
13.08.2018 12:00:00 26,4 14,1 13 7 20 11 WNW 20 38 0,0
13.08.2018 11:00:00 23,9 15,9 5 3 9 5 N 20 60 0,0
13.08.2018 10:00:00 20,4 15,6 5 3 9 5 WNW 20 26 0,0
13.08.2018 09:00:00 17,5 15,0 2 1 4 2 E 20 0 0,0
13.08.2018 08:00:00 16,9 15,1 3 2 8 4 WNW 15 0 -
13.08.2018 07:00:00 16,6 13,0 2 1 11 6 ENE 20 0 0,0
13.08.2018 06:00:00 17,5 14,6 5 3 11 6 W 20 0 0,0
13.08.2018 05:00:00 17,0 13,9 8 5 13 7 S 20 0 0,0
13.08.2018 04:00:00 18,4 16,2 4 2 9 5 S 13 0 0,0
13.08.2018 03:00:00 19,1 16,7 6 4 10 6 SSE 11 0 0,0
13.08.2018 02:00:00 20,4 17,6 6 3 16 9 W 20 0 -
13.08.2018 01:00:00 21,2 18,2 4 2 15 8 NNE 18 0 0,0
13.08.2018 00:00:00 22,5 17,9 12 6 18 10 S 20 0 0,0
12.08.2018 23:00:00 23,6 19,3 8 4 27 15 NE 19 0 1,2
12.08.2018 22:00:00 26,4 17,2 13 7 25 13 S 20 0 0,0
12.08.2018 21:00:00 28,3 14,9 9 5 25 13 SSE 20 0 0,0
12.08.2018 20:00:00 29,3 15,1 14 7 29 16 SE 20 8 -
12.08.2018 19:00:00 30,7 14,3 16 8 32 17 SE 20 17 0,0
12.08.2018 18:00:00 31,6 13,4 15 8 34 18 SE 20 43 0,0
12.08.2018 17:00:00 34,6 13,5 25 13 37 20 ESE 20 58 0,0
12.08.2018 16:00:00 35,0 5,5 6 3 21 11 ENE 20 60 0,0
12.08.2018 15:00:00 33,8 7,7 4 2 16 9 NE 20 60 0,0
12.08.2018 14:00:00 32,2 12,4 6 3 12 6 NE 20 60 -
12.08.2018 13:00:00 30,1 13,9 4 2 11 6 NNW 20 60 0,0
12.08.2018 12:00:00 26,7 13,8 5 3 9 5 W 20 60 0,0
12.08.2018 11:00:00 22,7 16,0 4 2 12 7 WNW 20 60 0,0
12.08.2018 10:00:00 20,5 16,3 3 2 7 4 NE 19 29 0,0
12.08.2018 09:00:00 17,3 14,0 6 3 10 5 SSE 20 0 0,0
12.08.2018 08:00:00 15,7 14,0 8 4 10 6 SSE 13 0 -
12.08.2018 07:00:00 16,6 15,0 4 2 8 5 E 8 0 0,0
12.08.2018 06:00:00 17,7 16,0 7 4 11 6 ESE 6 0 0,0
12.08.2018 05:00:00 18,8 17,1 3 2 9 5 SE 7 0 0,0
12.08.2018 04:00:00 19,7 18,0 8 4 13 7 SSE 9 0 0,0
12.08.2018 03:00:00 20,3 18,6 8 4 17 9 S 8 0 0,0
12.08.2018 02:00:00 20,9 18,8 14 7 21 12 SSE 10 0 -
12.08.2018 01:00:00 20,7 18,1 10 5 13 7 SE 14 0 0,0
12.08.2018 00:00:00 22,1 18,1 8 4 13 7 SE 18 0 0,0
11.08.2018 23:00:00 23,0 17,9 5 3 27 14 ESE 19 0 0,0
11.08.2018 22:00:00 24,0 17,7 13 7 29 16 SSE 20 0 0,0
11.08.2018 21:00:00 25,1 17,8 11 6 22 12 SSE 20 0 0,0
11.08.2018 20:00:00 26,6 17,9 11 6 30 16 SE 20 0 -
11.08.2018 19:00:00 27,4 17,5 17 9 30 16 SE 20 0 0,0
11.08.2018 18:00:00 28,4 17,6 16 9 34 19 SE 20 0 0,0
11.08.2018 17:00:00 28,5 17,1 19 10 32 17 SE 20 0 0,0
11.08.2018 16:00:00 30,2 15,5 16 9 31 17 SSE 20 30 0,0
11.08.2018 15:00:00 33,0 14,1 15 8 27 14 SE 14 60 0,0
11.08.2018 14:00:00 31,1 15,5 13 7 29 16 SSE 20 60 -
11.08.2018 13:00:00 29,6 15,3 16 9 29 16 SE 20 60 0,0
11.08.2018 12:00:00 26,8 15,8 6 3 15 8 ESE 16 60 0,0
11.08.2018 11:00:00 23,1 16,1 3 2 12 6 ENE 13 60 0,0
11.08.2018 10:00:00 21,1 17,3 5 3 9 5 NNE 20 32 0,0
11.08.2018 09:00:00 18,3 17,0 3 2 5 3 SSE 12 0 0,0
11.08.2018 08:00:00 16,8 15,3 2 1 5 3 ENE 7 0 -
11.08.2018 07:00:00 16,7 15,1 3 1 7 4 N 11 0 0,0
11.08.2018 06:00:00 17,1 15,1 5 3 6 3 SE 9 0 0,0
11.08.2018 05:00:00 17,5 14,8 3 2 9 5 NE 17 0 0,0
11.08.2018 04:00:00 18,0 14,7 4 2 8 4 SW 19 0 0,0
11.08.2018 03:00:00 19,0 14,4 3 2 7 4 N 20 0 0,0
11.08.2018 02:00:00 19,9 14,2 3 2 8 5 WSW 20 0 -
11.08.2018 01:00:00 21,0 13,7 3 2 18 10 ENE 20 0 0,0
11.08.2018 00:00:00 22,8 18,2 12 6 25 13 SSE 18 0 0,0
10.08.2018 23:00:00 23,3 14,6 12 6 26 14 ESE 20 0 0,0
10.08.2018 22:00:00 23,8 11,4 5 3 25 13 E 20 0 0,0
10.08.2018 21:00:00 26,2 16,1 10 5 29 16 ESE 20 21 0,0
10.08.2018 20:00:00 27,0 15,3 13 7 38 20 SE 20 13 -
10.08.2018 19:00:00 27,9 14,9 10 6 29 15 SSE 20 6 0,0
10.08.2018 18:00:00 29,2 15,0 13 7 33 18 SE 20 0 0,0
10.08.2018 17:00:00 31,9 13,7 16 9 35 19 ESE 20 48 0,0
10.08.2018 16:00:00 33,8 12,7 16 9 31 17 ESE 20 60 0,0
10.08.2018 15:00:00 32,8 13,0 13 7 28 15 SE 20 60 0,0
10.08.2018 14:00:00 31,3 14,4 14 8 31 17 SE 20 60 -
10.08.2018 13:00:00 28,7 15,6 8 4 28 15 S 14 60 0,0
10.08.2018 12:00:00 26,2 15,0 3 2 9 5 N 20 60 0,0
10.08.2018 11:00:00 23,0 14,8 6 3 13 7 N 20 60 0,0
10.08.2018 10:00:00 19,3 11,8 2 1 6 3 NNE 20 37 0,0
10.08.2018 09:00:00 16,0 10,0 4 2 11 6 NW 20 0 0,0
10.08.2018 08:00:00 12,8 10,2 5 3 10 5 S 20 0 -
10.08.2018 07:00:00 12,8 9,9 9 5 10 6 SSE 20 0 0,0
10.08.2018 06:00:00 13,7 10,6 3 2 8 4 SW 20 0 0,0
10.08.2018 05:00:00 14,3 10,5 6 3 9 5 SSE 20 0 0,0
10.08.2018 04:00:00 15,7 11,2 2 1 9 5 WSW 20 0 0,0
10.08.2018 03:00:00 16,5 10,3 6 4 9 5 SSE 20 0 0,0
10.08.2018 02:00:00 17,8 9,7 8 5 11 6 SSE 20 0 -
10.08.2018 01:00:00 19,5 9,7 9 5 13 7 SE 20 0 0,0
10.08.2018 00:00:00 22,6 8,7 5 3 15 8 S 20 0 0,0
09.08.2018 23:00:00 24,6 4,8 10 5 18 10 SW 20 0 0,0
09.08.2018 22:00:00 25,5 5,6 10 6 18 10 WSW 20 0 0,0
09.08.2018 21:00:00 27,7 7,0 13 7 24 13 W 20 54 0,0
09.08.2018 20:00:00 29,9 7,1 14 8 25 14 W 20 60 -
09.08.2018 19:00:00 31,1 6,2 16 8 27 15 WNW 20 60 0,0
09.08.2018 18:00:00 32,1 6,2 14 8 27 15 WNW 20 60 0,0
09.08.2018 17:00:00 32,7 5,3 11 6 22 12 WNW 20 60 0,0
09.08.2018 16:00:00 31,8 8,1 11 6 24 13 WNW 20 60 0,0
09.08.2018 15:00:00 30,7 7,8 10 6 21 12 NW 20 60 0,0
09.08.2018 14:00:00 29,3 9,4 13 7 23 12 NW 20 60 -
09.08.2018 13:00:00 27,5 11,6 11 6 20 11 W 20 60 0,0
09.08.2018 12:00:00 25,2 13,8 10 6 26 14 NNW 20 60 0,0
09.08.2018 11:00:00 22,9 16,5 11 6 19 10 NNW 15 60 0,0
09.08.2018 10:00:00 20,5 15,5 9 5 16 9 NNW 20 40 0,0
09.08.2018 09:00:00 17,5 15,9 3 2 12 7 NW 12 0 0,0
09.08.2018 08:00:00 15,1 13,5 5 3 10 5 S 15 0 -
09.08.2018 07:00:00 15,5 14,0 6 3 9 5 SSW 14 0 0,0
09.08.2018 06:00:00 16,1 14,6 6 3 11 6 SE 8 0 0,0
09.08.2018 05:00:00 16,6 15,2 8 4 11 6 SSE 9 0 0,0
09.08.2018 04:00:00 17,2 15,5 9 5 11 6 SSE 8 0 0,0
09.08.2018 03:00:00 18,1 16,0 5 3 7 4 SSW 7 0 0,0
09.08.2018 02:00:00 19,0 16,4 4 2 13 7 E 15 0 -
09.08.2018 01:00:00 20,3 16,1 9 5 15 8 SSW 20 0 0,0
09.08.2018 00:00:00 20,7 16,7 5 3 15 8 S 20 0 0,0
08.08.2018 23:00:00 21,3 17,1 7 4 16 9 S 20 0 0,0
08.08.2018 22:00:00 21,8 18,4 9 5 23 12 ESE 20 0 0,0
08.08.2018 21:00:00 22,5 18,5 17 9 30 16 SSE 19 0 0,4
08.08.2018 20:00:00 20,1 17,5 14 7 28 15 SE 18 0 -
08.08.2018 19:00:00 20,3 16,3 8 4 54 29 SSW 20 0 7,6
08.08.2018 18:00:00 20,7 17,3 16 9 29 16 SSE 16 0 1,6
08.08.2018 17:00:00 22,6 16,4 13 7 32 17 S 17 0 2,4
08.08.2018 16:00:00 25,2 19,1 5 3 31 17 ESE 20 9 0,0
08.08.2018 15:00:00 26,6 19,2 10 5 47 26 E 20 30 2,6
08.08.2018 14:00:00 33,5 13,1 6 3 15 8 N 20 60 -
08.08.2018 13:00:00 31,5 14,6 5 3 12 7 NNE 20 60 0,0
08.08.2018 12:00:00 28,3 15,3 4 2 11 6 NNW 19 60 0,0
08.08.2018 11:00:00 24,8 12,7 6 3 10 6 N 20 60 0,0
08.08.2018 10:00:00 21,3 14,9 3 1 6 4 S 18 40 0,0
08.08.2018 09:00:00 18,5 15,5 3 2 6 3 SSE 18 0 0,0
08.08.2018 08:00:00 16,8 14,2 4 2 6 3 ESE 9 0 -

tt = Température de l'air
td = dewpoint
ff = Vitesse du vent
fx = gusts
dd = Direction du vent
vv = visibility
sd = Ensoleillement
rr = Quantités de précipitations

stations d'obs. à proximité